Pine Bush, New York
Current Conditions -  °F | °C
As of 2:54 AM on Thursday 18 Dec 2014 (Local Time) from KMGJ Reporting Station
Overcast Overcast  
Wind Chill: -1°   Ceiling: 4500
Heat Index:   Visibility: 10mi
Dew Point: -4°   Wind: 8mph
Humidity: 62%   Direction: 290°WNW
Pressure: 29.89"   Gusts: NA
Location:  41.61°N, 74.3°W
Report Text: KMGJ 180754Z AUTO 29007KT 10SM SCT034 BKN045 OVC075 03/M04 A2989 RMK AO2 SLP122 T00281039 TSNO
Loading
Personal Weather Stations






























Interactive Weather Map New forecast layout! Learn more

10-Day Weather Forecast

Advertisements
Track Severe Weather on mobile